Prairie Farm, Wisconsin
Current Conditions -  °F | °C
As of 10:15 PM on Sunday 21 Dec 2014 (Local Time) from KRPD Reporting Station
Drizzle Drizzle  
Wind Chill: 29°   Ceiling: 300
Heat Index: 35°   Visibility: 2mi
Dew Point: 34°   Wind: 7mph
Humidity: 98%   Direction: 130°SE
Pressure: 29.78"   Gusts: NA
Location:  45.24°N, 91.98°W
Report Text: KRPD 220415Z AUTO 13006KT 2SM -DZ OVC003 02/01 A2978 RMK AO2 T00150012
Loading
Personal Weather Stations






























Interactive Weather Map New forecast layout! Learn more

10-Day Weather Forecast

Advertisements
Track Severe Weather on mobile